AZU6107 SBIZ-SBTE
Flight info
| Callsign | AZU6107 |
|---|---|
| Flight time | 1h 20m |
| Altitude | 20999 |
| Route | DCT |
| Aircraft | AT76/M-SDFGIRY/S |
Departure
| Time | 2026-04-26 04:45 |
|---|---|
| Airport | Prefeito Renato Moreira Airport (SBIZ) |
Arrival
| Time | 2026-04-26 06:06 |
|---|---|
| Airport | Senador Petrônio Portela Airport (SBTE) |
| Time | Latitude | Longitude | Altitude | Speed | Heading |
|---|---|---|---|---|---|
| 2026-04-26 03:54 | -5.53166 | -47.45689 | 432 ft | 0 kts | 144° |
| 2026-04-26 04:36 | -5.53166 | -47.45688 | 432 ft | 0 kts | 144° |
| 2026-04-26 04:36 | -5.53165 | -47.45689 | 432 ft | 0 kts | 144° |
| 2026-04-26 04:36 | -5.53154 | -47.45697 | 432 ft | 2 kts | 144° |
| 2026-04-26 04:37 | -5.53142 | -47.45705 | 432 ft | 2 kts | 160° |
| 2026-04-26 04:37 | -5.53127 | -47.45706 | 432 ft | 2 kts | 204° |
| 2026-04-26 04:37 | -5.53118 | -47.45699 | 432 ft | 1 kts | 234° |
| 2026-04-26 04:37 | -5.53117 | -47.45698 | 432 ft | 0 kts | 234° |
| 2026-04-26 04:39 | -5.53118 | -47.45699 | 432 ft | 1 kts | 234° |
| 2026-04-26 04:40 | -5.53132 | -47.45718 | 432 ft | 5 kts | 234° |
| 2026-04-26 04:40 | -5.53155 | -47.45749 | 432 ft | 5 kts | 233° |
| 2026-04-26 04:40 | -5.53178 | -47.45790 | 431 ft | 7 kts | 270° |
| 2026-04-26 04:40 | -5.53144 | -47.45830 | 432 ft | 7 kts | 325° |
| 2026-04-26 04:41 | -5.53102 | -47.45861 | 432 ft | 7 kts | 323° |
| 2026-04-26 04:41 | -5.53067 | -47.45901 | 432 ft | 8 kts | 268° |
| 2026-04-26 04:41 | -5.53101 | -47.45954 | 431 ft | 9 kts | 233° |
| 2026-04-26 04:41 | -5.53140 | -47.46008 | 431 ft | 9 kts | 234° |
| 2026-04-26 04:42 | -5.53184 | -47.46068 | 430 ft | 11 kts | 234° |
| 2026-04-26 04:42 | -5.53236 | -47.46139 | 428 ft | 12 kts | 233° |
| 2026-04-26 04:42 | -5.53286 | -47.46207 | 428 ft | 11 kts | 234° |
| 2026-04-26 04:42 | -5.53338 | -47.46279 | 426 ft | 14 kts | 234° |
| 2026-04-26 04:43 | -5.53399 | -47.46363 | 425 ft | 14 kts | 234° |
| 2026-04-26 04:43 | -5.53455 | -47.46439 | 425 ft | 12 kts | 233° |
| 2026-04-26 04:43 | -5.53506 | -47.46508 | 425 ft | 11 kts | 234° |
| 2026-04-26 04:43 | -5.53554 | -47.46574 | 425 ft | 11 kts | 234° |
| 2026-04-26 04:44 | -5.53564 | -47.46642 | 425 ft | 10 kts | 279° |
| 2026-04-26 04:44 | -5.53597 | -47.46638 | 425 ft | 9 kts | 75° |
| 2026-04-26 04:44 | -5.53417 | -47.46386 | 425 ft | 89 kts | 54° |
| 2026-04-26 04:44 | -5.52922 | -47.45716 | 504 ft | 137 kts | 54° |
| 2026-04-26 04:45 | -5.52342 | -47.44923 | 863 ft | 148 kts | 54° |
| 2026-04-26 04:45 | -5.51702 | -47.44049 | 1246 ft | 160 kts | 54° |
| 2026-04-26 04:45 | -5.51023 | -47.43121 | 1627 ft | 167 kts | 54° |
| 2026-04-26 04:45 | -5.50326 | -47.42170 | 1989 ft | 171 kts | 54° |
| 2026-04-26 04:46 | -5.49583 | -47.41164 | 2251 ft | 189 kts | 54° |
| 2026-04-26 04:46 | -5.48774 | -47.40073 | 2658 ft | 197 kts | 54° |
| 2026-04-26 04:46 | -5.47947 | -47.38965 | 3083 ft | 201 kts | 54° |
| 2026-04-26 04:46 | -5.47094 | -47.37830 | 3492 ft | 205 kts | 54° |
| 2026-04-26 04:47 | -5.46223 | -47.36685 | 3902 ft | 207 kts | 54° |
| 2026-04-26 04:47 | -5.45420 | -47.35486 | 4279 ft | 208 kts | 72° |
| 2026-04-26 04:47 | -5.45245 | -47.34054 | 4715 ft | 206 kts | 86° |
| 2026-04-26 04:47 | -5.45140 | -47.32616 | 5125 ft | 206 kts | 86° |
| 2026-04-26 04:48 | -5.44944 | -47.29752 | 5975 ft | 205 kts | 87° |
| 2026-04-26 04:48 | -5.44849 | -47.28335 | 6390 ft | 204 kts | 87° |
| 2026-04-26 04:48 | -5.44765 | -47.26912 | 6782 ft | 204 kts | 88° |
| 2026-04-26 04:49 | -5.44699 | -47.25499 | 7146 ft | 204 kts | 88° |
| 2026-04-26 04:49 | -5.44629 | -47.24063 | 7503 ft | 205 kts | 88° |
| 2026-04-26 04:49 | -5.44561 | -47.22641 | 7861 ft | 205 kts | 88° |
| 2026-04-26 04:49 | -5.44494 | -47.21210 | 8207 ft | 206 kts | 88° |
| 2026-04-26 04:50 | -5.44428 | -47.19758 | 8555 ft | 206 kts | 88° |
| 2026-04-26 04:50 | -5.44364 | -47.18321 | 8894 ft | 206 kts | 88° |
| 2026-04-26 04:50 | -5.44303 | -47.16890 | 9232 ft | 206 kts | 88° |
| 2026-04-26 04:50 | -5.44245 | -47.15442 | 9568 ft | 206 kts | 88° |
| 2026-04-26 04:51 | -5.44187 | -47.14001 | 9905 ft | 206 kts | 88° |
| 2026-04-26 04:51 | -5.44132 | -47.12574 | 10239 ft | 206 kts | 88° |
| 2026-04-26 04:51 | -5.44077 | -47.11138 | 10563 ft | 206 kts | 88° |
| 2026-04-26 04:51 | -5.44020 | -47.09700 | 10874 ft | 206 kts | 88° |
| 2026-04-26 04:52 | -5.43963 | -47.08257 | 11185 ft | 206 kts | 88° |
| 2026-04-26 04:52 | -5.43905 | -47.06817 | 11492 ft | 206 kts | 88° |
| 2026-04-26 04:52 | -5.43847 | -47.05387 | 11793 ft | 205 kts | 88° |
| 2026-04-26 04:52 | -5.43787 | -47.03953 | 12073 ft | 206 kts | 88° |
| 2026-04-26 04:53 | -5.43724 | -47.02515 | 12358 ft | 206 kts | 88° |
| 2026-04-26 04:53 | -5.43662 | -47.01068 | 12640 ft | 206 kts | 88° |
| 2026-04-26 04:53 | -5.43601 | -46.99623 | 12924 ft | 206 kts | 88° |
| 2026-04-26 04:53 | -5.43539 | -46.98187 | 13208 ft | 205 kts | 88° |
| 2026-04-26 04:54 | -5.43479 | -46.96767 | 13490 ft | 205 kts | 88° |
| 2026-04-26 04:54 | -5.43420 | -46.95327 | 13776 ft | 204 kts | 88° |
| 2026-04-26 04:54 | -5.43361 | -46.93919 | 14052 ft | 203 kts | 88° |
| 2026-04-26 04:54 | -5.43305 | -46.92500 | 14334 ft | 202 kts | 88° |
| 2026-04-26 04:55 | -5.43249 | -46.91089 | 14615 ft | 201 kts | 88° |
| 2026-04-26 04:55 | -5.43195 | -46.89679 | 14894 ft | 199 kts | 88° |
| 2026-04-26 04:55 | -5.43142 | -46.88303 | 15170 ft | 198 kts | 88° |
| 2026-04-26 04:55 | -5.43089 | -46.86913 | 15451 ft | 197 kts | 88° |
| 2026-04-26 04:56 | -5.43042 | -46.85543 | 15730 ft | 195 kts | 88° |
| 2026-04-26 04:56 | -5.42997 | -46.84196 | 16004 ft | 194 kts | 88° |
| 2026-04-26 04:56 | -5.42956 | -46.82835 | 16266 ft | 193 kts | 88° |
| 2026-04-26 04:56 | -5.42917 | -46.81497 | 16493 ft | 194 kts | 88° |
| 2026-04-26 04:57 | -5.42879 | -46.80142 | 16727 ft | 194 kts | 88° |
| 2026-04-26 04:57 | -5.42842 | -46.78789 | 16959 ft | 194 kts | 88° |
| 2026-04-26 04:57 | -5.42809 | -46.77425 | 17197 ft | 194 kts | 88° |
| 2026-04-26 04:57 | -5.42778 | -46.76066 | 17430 ft | 194 kts | 88° |
| 2026-04-26 04:58 | -5.42746 | -46.74726 | 17658 ft | 193 kts | 88° |
| 2026-04-26 04:58 | -5.42715 | -46.73361 | 17892 ft | 192 kts | 88° |
| 2026-04-26 04:58 | -5.42682 | -46.72021 | 18116 ft | 191 kts | 88° |
| 2026-04-26 04:58 | -5.42647 | -46.70678 | 18345 ft | 190 kts | 88° |
| 2026-04-26 04:59 | -5.42614 | -46.69367 | 18568 ft | 189 kts | 88° |
| 2026-04-26 04:59 | -5.42582 | -46.68046 | 18794 ft | 188 kts | 88° |
| 2026-04-26 04:59 | -5.42552 | -46.66735 | 19018 ft | 187 kts | 88° |
| 2026-04-26 04:59 | -5.42524 | -46.65423 | 19248 ft | 185 kts | 88° |
| 2026-04-26 05:00 | -5.42501 | -46.64141 | 19470 ft | 183 kts | 88° |
| 2026-04-26 05:00 | -5.42478 | -46.62864 | 19692 ft | 182 kts | 88° |
| 2026-04-26 05:00 | -5.42456 | -46.61602 | 19913 ft | 180 kts | 88° |
| 2026-04-26 05:00 | -5.42435 | -46.60354 | 20135 ft | 178 kts | 88° |
| 2026-04-26 05:01 | -5.42414 | -46.59126 | 20357 ft | 176 kts | 88° |
| 2026-04-26 05:01 | -5.42392 | -46.57901 | 20581 ft | 173 kts | 88° |
| 2026-04-26 05:01 | -5.42371 | -46.56706 | 20800 ft | 170 kts | 88° |
| 2026-04-26 05:01 | -5.42344 | -46.55513 | 20938 ft | 171 kts | 87° |
| 2026-04-26 05:02 | -5.42302 | -46.54293 | 20967 ft | 178 kts | 87° |
| 2026-04-26 05:02 | -5.42258 | -46.53028 | 20977 ft | 185 kts | 87° |
| 2026-04-26 05:02 | -5.42212 | -46.51695 | 20974 ft | 193 kts | 87° |
| 2026-04-26 05:02 | -5.42162 | -46.50312 | 20970 ft | 200 kts | 87° |
| 2026-04-26 05:03 | -5.42111 | -46.48906 | 20968 ft | 205 kts | 87° |
| 2026-04-26 05:03 | -5.42059 | -46.47447 | 20967 ft | 210 kts | 87° |
| 2026-04-26 05:03 | -5.42006 | -46.45978 | 20965 ft | 214 kts | 87° |
| 2026-04-26 05:03 | -5.41952 | -46.44476 | 20964 ft | 217 kts | 87° |
| 2026-04-26 05:04 | -5.41892 | -46.42935 | 20964 ft | 220 kts | 87° |
| 2026-04-26 05:04 | -5.41832 | -46.41401 | 20962 ft | 223 kts | 87° |
| 2026-04-26 05:04 | -5.41766 | -46.39831 | 20961 ft | 225 kts | 87° |
| 2026-04-26 05:04 | -5.41700 | -46.38253 | 20959 ft | 227 kts | 87° |
| 2026-04-26 05:05 | -5.41634 | -46.36680 | 20958 ft | 228 kts | 87° |
| 2026-04-26 05:05 | -5.41569 | -46.35069 | 20956 ft | 229 kts | 87° |
| 2026-04-26 05:05 | -5.41505 | -46.33461 | 20956 ft | 231 kts | 87° |
| 2026-04-26 05:05 | -5.41439 | -46.31845 | 20954 ft | 232 kts | 87° |
| 2026-04-26 05:06 | -5.41372 | -46.30225 | 20955 ft | 233 kts | 86° |
| 2026-04-26 05:06 | -5.41309 | -46.28602 | 20955 ft | 234 kts | 87° |
| 2026-04-26 05:06 | -5.41242 | -46.26958 | 20953 ft | 235 kts | 87° |
| 2026-04-26 05:06 | -5.41174 | -46.25317 | 20954 ft | 235 kts | 87° |
| 2026-04-26 05:07 | -5.41106 | -46.23670 | 20952 ft | 236 kts | 87° |
| 2026-04-26 05:07 | -5.41040 | -46.22020 | 20952 ft | 236 kts | 87° |
| 2026-04-26 05:07 | -5.40972 | -46.20367 | 20951 ft | 236 kts | 87° |
| 2026-04-26 05:07 | -5.40901 | -46.18722 | 20951 ft | 236 kts | 86° |
| 2026-04-26 05:08 | -5.40832 | -46.17073 | 20950 ft | 237 kts | 87° |
| 2026-04-26 05:08 | -5.40763 | -46.15420 | 20950 ft | 237 kts | 86° |
| 2026-04-26 05:08 | -5.40695 | -46.13763 | 20950 ft | 237 kts | 87° |
| 2026-04-26 05:08 | -5.40626 | -46.12096 | 20950 ft | 237 kts | 86° |
| 2026-04-26 05:09 | -5.40559 | -46.10436 | 20951 ft | 237 kts | 87° |
| 2026-04-26 05:09 | -5.40491 | -46.08791 | 20950 ft | 237 kts | 87° |
| 2026-04-26 05:09 | -5.40423 | -46.07129 | 20952 ft | 237 kts | 86° |
| 2026-04-26 05:09 | -5.40358 | -46.05479 | 20952 ft | 237 kts | 87° |
| 2026-04-26 05:10 | -5.40294 | -46.03828 | 20954 ft | 237 kts | 87° |
| 2026-04-26 05:10 | -5.40227 | -46.02148 | 20952 ft | 238 kts | 87° |
| 2026-04-26 05:10 | -5.40161 | -46.00496 | 20950 ft | 238 kts | 87° |
| 2026-04-26 05:10 | -5.40097 | -45.98839 | 20949 ft | 238 kts | 87° |
| 2026-04-26 05:11 | -5.40030 | -45.97185 | 20949 ft | 238 kts | 87° |
| 2026-04-26 05:11 | -5.39961 | -45.95502 | 20949 ft | 238 kts | 86° |
| 2026-04-26 05:11 | -5.39895 | -45.93857 | 20949 ft | 238 kts | 87° |
| 2026-04-26 05:11 | -5.39825 | -45.92192 | 20950 ft | 238 kts | 87° |
| 2026-04-26 05:12 | -5.39754 | -45.90522 | 20949 ft | 238 kts | 87° |
| 2026-04-26 05:12 | -5.39684 | -45.88847 | 20950 ft | 238 kts | 87° |
| 2026-04-26 05:12 | -5.39615 | -45.87199 | 20950 ft | 238 kts | 86° |
| 2026-04-26 05:12 | -5.39547 | -45.85532 | 20952 ft | 237 kts | 86° |
| 2026-04-26 05:13 | -5.39482 | -45.83870 | 20951 ft | 237 kts | 87° |
| 2026-04-26 05:13 | -5.39412 | -45.82200 | 20951 ft | 237 kts | 86° |
| 2026-04-26 05:13 | -5.39344 | -45.80551 | 20951 ft | 237 kts | 86° |
| 2026-04-26 05:13 | -5.39274 | -45.78888 | 20950 ft | 237 kts | 87° |
| 2026-04-26 05:14 | -5.39205 | -45.77241 | 20949 ft | 237 kts | 87° |
| 2026-04-26 05:14 | -5.39130 | -45.75564 | 20952 ft | 237 kts | 87° |
| 2026-04-26 05:14 | -5.39056 | -45.73920 | 20950 ft | 237 kts | 87° |
| 2026-04-26 05:14 | -5.38981 | -45.72269 | 20949 ft | 237 kts | 86° |
| 2026-04-26 05:15 | -5.38907 | -45.70607 | 20951 ft | 237 kts | 87° |
| 2026-04-26 05:15 | -5.38835 | -45.68960 | 20952 ft | 237 kts | 86° |
| 2026-04-26 05:15 | -5.38764 | -45.67320 | 20950 ft | 237 kts | 87° |
| 2026-04-26 05:15 | -5.38691 | -45.65668 | 20950 ft | 237 kts | 87° |
| 2026-04-26 05:16 | -5.38621 | -45.64002 | 20950 ft | 237 kts | 86° |
| 2026-04-26 05:16 | -5.38552 | -45.62349 | 20950 ft | 237 kts | 86° |
| 2026-04-26 05:16 | -5.38483 | -45.60708 | 20949 ft | 237 kts | 87° |
| 2026-04-26 05:16 | -5.38409 | -45.59054 | 20950 ft | 236 kts | 86° |
| 2026-04-26 05:17 | -5.38355 | -45.57391 | 20950 ft | 236 kts | 88° |
| 2026-04-26 05:17 | -5.38312 | -45.55742 | 20953 ft | 236 kts | 88° |
| 2026-04-26 05:17 | -5.38271 | -45.54101 | 20950 ft | 236 kts | 88° |
| 2026-04-26 05:17 | -5.38229 | -45.52441 | 20948 ft | 236 kts | 88° |
| 2026-04-26 05:18 | -5.38185 | -45.50812 | 20949 ft | 236 kts | 88° |
| 2026-04-26 05:18 | -5.38142 | -45.49145 | 20947 ft | 236 kts | 88° |
| 2026-04-26 05:18 | -5.38098 | -45.47501 | 20948 ft | 236 kts | 88° |
| 2026-04-26 05:18 | -5.38056 | -45.45860 | 20945 ft | 236 kts | 88° |
| 2026-04-26 05:19 | -5.38011 | -45.44204 | 20947 ft | 236 kts | 88° |
| 2026-04-26 05:19 | -5.37968 | -45.42558 | 20944 ft | 236 kts | 88° |
| 2026-04-26 05:19 | -5.37925 | -45.40906 | 20945 ft | 236 kts | 88° |
| 2026-04-26 05:19 | -5.37878 | -45.39251 | 20945 ft | 236 kts | 88° |
| 2026-04-26 05:20 | -5.37833 | -45.37602 | 20942 ft | 236 kts | 88° |
| 2026-04-26 05:20 | -5.37790 | -45.35955 | 20942 ft | 235 kts | 88° |
| 2026-04-26 05:20 | -5.37743 | -45.34316 | 20943 ft | 235 kts | 88° |
| 2026-04-26 05:20 | -5.37695 | -45.32654 | 20950 ft | 235 kts | 88° |
| 2026-04-26 05:21 | -5.37650 | -45.31014 | 20951 ft | 235 kts | 88° |
| 2026-04-26 05:21 | -5.37607 | -45.29377 | 20953 ft | 236 kts | 88° |
| 2026-04-26 05:21 | -5.37565 | -45.27731 | 20955 ft | 236 kts | 88° |
| 2026-04-26 05:21 | -5.37525 | -45.26082 | 20956 ft | 236 kts | 88° |
| 2026-04-26 05:22 | -5.37481 | -45.24441 | 20950 ft | 236 kts | 88° |
| 2026-04-26 05:22 | -5.37440 | -45.22777 | 20949 ft | 236 kts | 88° |
| 2026-04-26 05:22 | -5.37397 | -45.21148 | 20950 ft | 236 kts | 88° |
| 2026-04-26 05:22 | -5.37353 | -45.19475 | 20952 ft | 236 kts | 88° |
| 2026-04-26 05:23 | -5.37306 | -45.17842 | 20957 ft | 236 kts | 88° |
| 2026-04-26 05:23 | -5.37258 | -45.16196 | 20958 ft | 236 kts | 88° |
| 2026-04-26 05:23 | -5.37211 | -45.14534 | 20962 ft | 236 kts | 88° |
| 2026-04-26 05:23 | -5.37162 | -45.12897 | 20961 ft | 236 kts | 88° |
| 2026-04-26 05:24 | -5.37105 | -45.11239 | 20962 ft | 236 kts | 86° |
| 2026-04-26 05:24 | -5.37029 | -45.09609 | 20962 ft | 236 kts | 86° |
| 2026-04-26 05:24 | -5.36952 | -45.07946 | 20965 ft | 236 kts | 87° |
| 2026-04-26 05:24 | -5.36877 | -45.06308 | 20965 ft | 236 kts | 86° |
| 2026-04-26 05:25 | -5.36798 | -45.04668 | 20963 ft | 236 kts | 87° |
| 2026-04-26 05:25 | -5.36720 | -45.03007 | 20966 ft | 236 kts | 86° |
| 2026-04-26 05:25 | -5.36642 | -45.01371 | 20964 ft | 236 kts | 86° |
| 2026-04-26 05:25 | -5.36564 | -44.99719 | 20962 ft | 236 kts | 86° |
| 2026-04-26 05:26 | -5.36484 | -44.98082 | 20964 ft | 236 kts | 86° |
| 2026-04-26 05:26 | -5.36403 | -44.96424 | 20967 ft | 236 kts | 86° |
| 2026-04-26 05:26 | -5.36322 | -44.94787 | 20963 ft | 236 kts | 87° |
| 2026-04-26 05:26 | -5.36239 | -44.93137 | 20967 ft | 236 kts | 86° |
| 2026-04-26 05:27 | -5.36157 | -44.91496 | 20964 ft | 236 kts | 86° |
| 2026-04-26 05:27 | -5.36072 | -44.89840 | 20962 ft | 236 kts | 86° |
| 2026-04-26 05:27 | -5.35990 | -44.88203 | 20963 ft | 235 kts | 86° |
| 2026-04-26 05:27 | -5.35910 | -44.86563 | 20961 ft | 235 kts | 87° |
| 2026-04-26 05:28 | -5.35830 | -44.84932 | 20963 ft | 235 kts | 86° |
| 2026-04-26 05:28 | -5.35748 | -44.83283 | 20962 ft | 235 kts | 86° |
| 2026-04-26 05:28 | -5.35669 | -44.81630 | 20957 ft | 235 kts | 86° |
| 2026-04-26 05:28 | -5.35592 | -44.79995 | 20957 ft | 235 kts | 86° |
| 2026-04-26 05:29 | -5.35517 | -44.78360 | 20954 ft | 235 kts | 86° |
| 2026-04-26 05:29 | -5.35444 | -44.76716 | 20951 ft | 235 kts | 87° |
| 2026-04-26 05:29 | -5.35366 | -44.75065 | 20951 ft | 235 kts | 87° |
| 2026-04-26 05:29 | -5.35292 | -44.73438 | 20950 ft | 235 kts | 86° |
| 2026-04-26 05:30 | -5.35214 | -44.71800 | 20949 ft | 235 kts | 86° |
| 2026-04-26 05:30 | -5.35135 | -44.70161 | 20946 ft | 235 kts | 86° |
| 2026-04-26 05:30 | -5.35055 | -44.68520 | 20946 ft | 235 kts | 87° |
| 2026-04-26 05:30 | -5.34977 | -44.66869 | 20948 ft | 235 kts | 87° |
| 2026-04-26 05:31 | -5.34898 | -44.65242 | 20945 ft | 235 kts | 86° |
| 2026-04-26 05:31 | -5.34825 | -44.63606 | 20948 ft | 234 kts | 87° |
| 2026-04-26 05:31 | -5.34750 | -44.61961 | 20947 ft | 234 kts | 87° |
| 2026-04-26 05:31 | -5.34673 | -44.60319 | 20953 ft | 234 kts | 86° |
| 2026-04-26 05:32 | -5.34598 | -44.58692 | 20949 ft | 234 kts | 87° |
| 2026-04-26 05:32 | -5.34531 | -44.57068 | 20950 ft | 234 kts | 88° |
| 2026-04-26 05:32 | -5.34491 | -44.55421 | 20951 ft | 234 kts | 88° |
| 2026-04-26 05:32 | -5.34447 | -44.53809 | 20952 ft | 234 kts | 88° |
| 2026-04-26 05:33 | -5.34403 | -44.52174 | 20951 ft | 234 kts | 88° |
| 2026-04-26 05:33 | -5.34359 | -44.50539 | 20949 ft | 234 kts | 88° |
| 2026-04-26 05:33 | -5.34316 | -44.48900 | 20950 ft | 234 kts | 88° |
| 2026-04-26 05:33 | -5.34270 | -44.47275 | 20952 ft | 234 kts | 88° |
| 2026-04-26 05:34 | -5.34223 | -44.45657 | 20951 ft | 234 kts | 88° |
| 2026-04-26 05:34 | -5.34175 | -44.44022 | 20952 ft | 233 kts | 88° |
| 2026-04-26 05:34 | -5.34132 | -44.42392 | 20952 ft | 233 kts | 88° |
| 2026-04-26 05:34 | -5.34085 | -44.40751 | 20951 ft | 233 kts | 88° |
| 2026-04-26 05:35 | -5.34035 | -44.39136 | 20951 ft | 233 kts | 88° |
| 2026-04-26 05:35 | -5.33987 | -44.37497 | 20952 ft | 233 kts | 88° |
| 2026-04-26 05:35 | -5.33941 | -44.35876 | 20950 ft | 234 kts | 88° |
| 2026-04-26 05:35 | -5.33898 | -44.34257 | 20954 ft | 233 kts | 88° |
| 2026-04-26 05:36 | -5.33858 | -44.32622 | 20957 ft | 234 kts | 88° |
| 2026-04-26 05:36 | -5.33816 | -44.30996 | 20961 ft | 234 kts | 88° |
| 2026-04-26 05:36 | -5.33772 | -44.29351 | 20959 ft | 234 kts | 88° |
| 2026-04-26 05:36 | -5.33730 | -44.27715 | 20961 ft | 234 kts | 88° |
| 2026-04-26 05:37 | -5.33684 | -44.26085 | 20958 ft | 234 kts | 88° |
| 2026-04-26 05:37 | -5.33637 | -44.24434 | 20957 ft | 235 kts | 88° |
| 2026-04-26 05:37 | -5.33591 | -44.22819 | 20957 ft | 235 kts | 88° |
| 2026-04-26 05:37 | -5.33542 | -44.21180 | 20958 ft | 235 kts | 88° |
| 2026-04-26 05:38 | -5.33496 | -44.19538 | 20956 ft | 235 kts | 88° |
| 2026-04-26 05:38 | -5.33447 | -44.17899 | 20958 ft | 235 kts | 88° |
| 2026-04-26 05:38 | -5.33404 | -44.16257 | 20957 ft | 235 kts | 88° |
| 2026-04-26 05:38 | -5.33360 | -44.14611 | 20958 ft | 235 kts | 88° |
| 2026-04-26 05:39 | -5.33312 | -44.12964 | 20959 ft | 235 kts | 88° |
| 2026-04-26 05:39 | -5.33266 | -44.11337 | 20957 ft | 235 kts | 87° |
| 2026-04-26 05:39 | -5.33223 | -44.09687 | 20958 ft | 235 kts | 88° |
| 2026-04-26 05:39 | -5.33179 | -44.08058 | 20959 ft | 235 kts | 88° |
| 2026-04-26 05:40 | -5.33136 | -44.06409 | 20957 ft | 235 kts | 88° |
| 2026-04-26 05:40 | -5.33089 | -44.04757 | 20960 ft | 235 kts | 88° |
| 2026-04-26 05:40 | -5.33034 | -44.03125 | 20957 ft | 235 kts | 86° |
| 2026-04-26 05:40 | -5.32960 | -44.01479 | 20957 ft | 235 kts | 87° |
| 2026-04-26 05:41 | -5.32884 | -43.99838 | 20957 ft | 235 kts | 86° |
| 2026-04-26 05:41 | -5.32810 | -43.98209 | 20955 ft | 235 kts | 87° |
| 2026-04-26 05:41 | -5.32733 | -43.96558 | 20956 ft | 235 kts | 86° |
| 2026-04-26 05:41 | -5.32635 | -43.94942 | 20956 ft | 235 kts | 86° |
| 2026-04-26 05:42 | -5.32525 | -43.93300 | 20955 ft | 235 kts | 85° |
| 2026-04-26 05:42 | -5.32419 | -43.91655 | 20956 ft | 235 kts | 86° |
| 2026-04-26 05:42 | -5.32314 | -43.90005 | 20953 ft | 235 kts | 86° |
| 2026-04-26 05:42 | -5.32211 | -43.88383 | 20954 ft | 235 kts | 86° |
| 2026-04-26 05:43 | -5.32105 | -43.86721 | 20955 ft | 235 kts | 86° |
| 2026-04-26 05:43 | -5.31999 | -43.85079 | 20954 ft | 235 kts | 85° |
| 2026-04-26 05:43 | -5.31899 | -43.83456 | 20953 ft | 234 kts | 85° |
| 2026-04-26 05:43 | -5.31799 | -43.81822 | 20951 ft | 234 kts | 85° |
| 2026-04-26 05:44 | -5.31699 | -43.80187 | 20950 ft | 235 kts | 86° |
| 2026-04-26 05:44 | -5.31593 | -43.78553 | 20948 ft | 235 kts | 86° |
| 2026-04-26 05:44 | -5.31487 | -43.76904 | 20948 ft | 235 kts | 86° |
| 2026-04-26 05:44 | -5.31381 | -43.75252 | 20948 ft | 235 kts | 85° |
| 2026-04-26 05:45 | -5.31276 | -43.73615 | 20948 ft | 235 kts | 86° |
| 2026-04-26 05:45 | -5.31175 | -43.71992 | 20948 ft | 235 kts | 86° |
| 2026-04-26 05:45 | -5.31095 | -43.70336 | 20948 ft | 235 kts | 86° |
| 2026-04-26 05:45 | -5.31022 | -43.68720 | 20948 ft | 234 kts | 86° |
| 2026-04-26 05:46 | -5.30950 | -43.67092 | 20952 ft | 234 kts | 87° |
| 2026-04-26 05:46 | -5.30877 | -43.65448 | 20951 ft | 234 kts | 86° |
| 2026-04-26 05:46 | -5.30802 | -43.63812 | 20950 ft | 234 kts | 86° |
| 2026-04-26 05:46 | -5.30732 | -43.62159 | 20952 ft | 234 kts | 87° |
| 2026-04-26 05:47 | -5.30660 | -43.60526 | 20956 ft | 234 kts | 87° |
| 2026-04-26 05:47 | -5.30593 | -43.58904 | 20959 ft | 234 kts | 87° |
| 2026-04-26 05:47 | -5.30524 | -43.57255 | 20961 ft | 234 kts | 87° |
| 2026-04-26 05:47 | -5.30449 | -43.55608 | 20770 ft | 243 kts | 86° |
| 2026-04-26 05:48 | -5.30366 | -43.53873 | 20416 ft | 257 kts | 86° |
| 2026-04-26 05:48 | -5.30276 | -43.52043 | 19993 ft | 270 kts | 87° |
| 2026-04-26 05:48 | -5.30175 | -43.50115 | 19540 ft | 278 kts | 87° |
| 2026-04-26 05:48 | -5.30070 | -43.48166 | 19085 ft | 283 kts | 87° |
| 2026-04-26 05:49 | -5.29961 | -43.46176 | 18624 ft | 286 kts | 86° |
| 2026-04-26 05:49 | -5.29740 | -43.42196 | 17699 ft | 290 kts | 87° |
| 2026-04-26 05:49 | -5.29626 | -43.40181 | 17238 ft | 290 kts | 87° |
| 2026-04-26 05:50 | -5.29541 | -43.38150 | 16773 ft | 290 kts | 88° |
| 2026-04-26 05:50 | -5.29454 | -43.36136 | 16307 ft | 290 kts | 88° |
| 2026-04-26 05:50 | -5.29363 | -43.34116 | 15840 ft | 290 kts | 88° |
| 2026-04-26 05:50 | -5.29266 | -43.32081 | 15375 ft | 289 kts | 88° |
| 2026-04-26 05:51 | -5.29165 | -43.30108 | 14904 ft | 278 kts | 88° |
| 2026-04-26 05:51 | -5.29060 | -43.28216 | 14428 ft | 266 kts | 88° |
| 2026-04-26 05:51 | -5.28953 | -43.26401 | 13954 ft | 257 kts | 88° |
| 2026-04-26 05:51 | -5.28844 | -43.24652 | 13477 ft | 249 kts | 88° |
| 2026-04-26 05:52 | -5.28738 | -43.22937 | 13045 ft | 241 kts | 88° |
| 2026-04-26 05:52 | -5.28637 | -43.21280 | 12613 ft | 235 kts | 88° |
| 2026-04-26 05:52 | -5.28539 | -43.19671 | 12185 ft | 230 kts | 88° |
| 2026-04-26 05:52 | -5.28439 | -43.18082 | 11754 ft | 225 kts | 88° |
| 2026-04-26 05:53 | -5.28339 | -43.16530 | 11324 ft | 222 kts | 88° |
| 2026-04-26 05:53 | -5.28240 | -43.15011 | 10909 ft | 218 kts | 88° |
| 2026-04-26 05:53 | -5.28137 | -43.13518 | 10502 ft | 214 kts | 88° |
| 2026-04-26 05:53 | -5.28161 | -43.12053 | 10064 ft | 211 kts | 108° |
| 2026-04-26 05:54 | -5.28927 | -43.10817 | 9677 ft | 206 kts | 127° |
| 2026-04-26 05:54 | -5.29815 | -43.09715 | 9313 ft | 203 kts | 128° |
| 2026-04-26 05:54 | -5.30700 | -43.08625 | 8999 ft | 197 kts | 128° |
| 2026-04-26 05:54 | -5.31546 | -43.07585 | 8685 ft | 192 kts | 128° |
| 2026-04-26 05:55 | -5.32385 | -43.06549 | 8366 ft | 188 kts | 128° |
| 2026-04-26 05:55 | -5.33207 | -43.05537 | 8051 ft | 185 kts | 128° |
| 2026-04-26 05:55 | -5.34021 | -43.04536 | 7738 ft | 186 kts | 128° |
| 2026-04-26 05:55 | -5.34855 | -43.03513 | 7426 ft | 188 kts | 128° |
| 2026-04-26 05:56 | -5.35684 | -43.02502 | 7111 ft | 185 kts | 128° |
| 2026-04-26 05:56 | -5.36490 | -43.01520 | 6798 ft | 182 kts | 128° |
| 2026-04-26 05:56 | -5.37291 | -43.00534 | 6477 ft | 178 kts | 124° |
| 2026-04-26 05:56 | -5.37621 | -42.99365 | 6195 ft | 177 kts | 98° |
| 2026-04-26 05:57 | -5.37770 | -42.98120 | 5960 ft | 185 kts | 98° |
| 2026-04-26 05:57 | -5.37926 | -42.96814 | 5729 ft | 193 kts | 98° |
| 2026-04-26 05:57 | -5.37713 | -42.95474 | 5485 ft | 199 kts | 69° |
| 2026-04-26 05:57 | -5.37140 | -42.94212 | 5241 ft | 195 kts | 68° |
| 2026-04-26 05:58 | -5.36586 | -42.92989 | 4983 ft | 187 kts | 68° |
| 2026-04-26 05:58 | -5.36066 | -42.91821 | 4729 ft | 180 kts | 68° |
| 2026-04-26 05:58 | -5.35569 | -42.90686 | 4495 ft | 177 kts | 68° |
| 2026-04-26 05:58 | -5.35081 | -42.89547 | 4286 ft | 178 kts | 68° |
| 2026-04-26 05:59 | -5.34597 | -42.88409 | 4060 ft | 174 kts | 68° |
| 2026-04-26 05:59 | -5.34134 | -42.87295 | 3847 ft | 169 kts | 68° |
| 2026-04-26 05:59 | -5.33684 | -42.86227 | 3664 ft | 165 kts | 62° |
| 2026-04-26 05:59 | -5.32788 | -42.85424 | 3518 ft | 184 kts | 33° |
| 2026-04-26 06:00 | -5.31618 | -42.84752 | 3365 ft | 197 kts | 31° |
| 2026-04-26 06:00 | -5.30398 | -42.84056 | 3213 ft | 207 kts | 31° |
| 2026-04-26 06:00 | -5.29137 | -42.83326 | 3045 ft | 204 kts | 31° |
| 2026-04-26 06:00 | -5.27947 | -42.82628 | 2864 ft | 194 kts | 31° |
| 2026-04-26 06:01 | -5.26798 | -42.81944 | 2658 ft | 186 kts | 31° |
| 2026-04-26 06:01 | -5.25588 | -42.81559 | 2434 ft | 181 kts | 2° |
| 2026-04-26 06:01 | -5.24343 | -42.81612 | 2247 ft | 180 kts | 358° |
| 2026-04-26 06:01 | -5.23015 | -42.81676 | 2122 ft | 195 kts | 359° |
| 2026-04-26 06:02 | -5.21646 | -42.81726 | 2133 ft | 199 kts | 359° |
| 2026-04-26 06:02 | -5.20247 | -42.81773 | 2120 ft | 199 kts | 359° |
| 2026-04-26 06:02 | -5.18853 | -42.81819 | 1984 ft | 198 kts | 359° |
| 2026-04-26 06:02 | -5.17484 | -42.81848 | 1814 ft | 191 kts | 0° |
| 2026-04-26 06:03 | -5.16197 | -42.81859 | 1639 ft | 178 kts | 360° |
| 2026-04-26 06:03 | -5.15046 | -42.81865 | 1547 ft | 154 kts | 360° |
| 2026-04-26 06:03 | -5.14030 | -42.81869 | 1322 ft | 134 kts | 360° |
| 2026-04-26 06:03 | -5.13140 | -42.81868 | 1130 ft | 121 kts | 360° |
| 2026-04-26 06:04 | -5.12306 | -42.81870 | 1017 ft | 122 kts | 359° |
| 2026-04-26 06:04 | -5.11466 | -42.81874 | 1075 ft | 113 kts | 359° |
| 2026-04-26 06:04 | -5.10646 | -42.81923 | 974 ft | 121 kts | 355° |
| 2026-04-26 06:04 | -5.09808 | -42.81988 | 833 ft | 120 kts | 354° |
| 2026-04-26 06:05 | -5.08985 | -42.82080 | 685 ft | 119 kts | 351° |
| 2026-04-26 06:05 | -5.08111 | -42.82163 | 525 ft | 129 kts | 354° |
| 2026-04-26 06:05 | -5.07261 | -42.82249 | 327 ft | 116 kts | 353° |
| 2026-04-26 06:05 | -5.06505 | -42.82326 | 225 ft | 91 kts | 352° |
| 2026-04-26 06:06 | -5.06173 | -42.82355 | 220 ft | 18 kts | 20° |
| 2026-04-26 06:06 | -5.06166 | -42.82364 | 220 ft | 6 kts | 168° |
| 2026-04-26 06:06 | -5.06260 | -42.82351 | 221 ft | 14 kts | 174° |
| 2026-04-26 06:06 | -5.06354 | -42.82336 | 221 ft | 13 kts | 153° |
| 2026-04-26 06:07 | -5.06374 | -42.82266 | 223 ft | 9 kts | 85° |
| 2026-04-26 06:07 | -5.06370 | -42.82216 | 225 ft | 5 kts | 85° |
| 2026-04-26 06:07 | -5.06351 | -42.82198 | 226 ft | 4 kts | 359° |
| 2026-04-26 06:07 | -5.06318 | -42.82201 | 226 ft | 5 kts | 354° |
| 2026-04-26 06:08 | -5.06298 | -42.82189 | 226 ft | 3 kts | 92° |
| 2026-04-26 06:08 | -5.06315 | -42.82186 | 226 ft | 3 kts | 213° |
| 2026-04-26 06:08 | -5.06318 | -42.82191 | 226 ft | 0 kts | 234° |
| 2026-04-26 06:08 | -5.06319 | -42.82191 | 226 ft | 0 kts | 233° |